Time;durP1;ratioP1;P1;durP2;ratioP2;P2;SDS_P1;SDS_P2;PMS_P1;PMS_P2;Temp;Humidity;BMP_temperature;BMP_pressure;BME280_temperature;BME280_humidity;BME280_pressure;Samples;Min_cycle;Max_cycle;Signal;HPM_P1;HPM_P2
2022/06/06 00:00:24;;;;;;;14.60;9.77;;;15.10;99.90;;;;;;5075896;28;20037;-81
2022/06/06 00:02:50;;;;;;;91.50;20.02;;;15.10;99.90;;;;;;5074989;28;20055;-80
2022/06/06 00:05:17;;;;;;;42.72;12.30;;;15.20;99.90;;;;;;5062597;28;20055;-80
2022/06/06 00:07:43;;;;;;;12.90;9.57;;;15.10;99.90;;;;;;5056232;28;20037;-80
2022/06/06 00:10:10;;;;;;;123.95;24.35;;;15.10;99.90;;;;;;5065868;28;20578;-80
2022/06/06 00:12:36;;;;;;;30.83;11.15;;;15.10;99.90;;;;;;5075376;28;20084;-80
2022/06/06 00:15:03;;;;;;;66.22;16.08;;;15.10;99.90;;;;;;5074445;28;20075;-79
2022/06/06 00:17:29;;;;;;;50.40;15.30;;;15.10;99.90;;;;;;5058030;28;20087;-80
2022/06/06 00:19:54;;;;;;;14.50;8.57;;;15.10;99.90;;;;;;5074526;28;20091;-79
2022/06/06 00:22:20;;;;;;;30.42;11.00;;;15.10;99.90;;;;;;5074583;28;20048;-80
2022/06/06 00:24:46;;;;;;;59.80;15.10;;;15.10;99.90;;;;;;5075286;28;20040;-80
2022/06/06 00:27:12;;;;;;;13.35;9.02;;;15.10;99.90;;;;;;5073705;28;20040;-80
2022/06/06 00:29:38;;;;;;;14.57;9.05;;;15.10;99.90;;;;;;5075809;28;20037;-79
2022/06/06 00:34:49;;;;;;;15.73;8.30;;;15.00;99.90;;;;;;5074053;28;20051;-79
2022/06/06 00:37:29;;;;;;;21.83;10.32;;;15.00;99.90;;;;;;5074625;28;20051;-79
2022/06/06 00:39:56;;;;;;;13.57;9.00;;;15.00;99.90;;;;;;5068640;28;20041;-80
2022/06/06 00:42:33;;;;;;;22.70;10.70;;;15.00;99.90;;;;;;5056513;28;20079;-81
2022/06/06 00:45:19;;;;;;;27.88;10.02;;;15.00;99.90;;;;;;5067061;28;20553;-80
2022/06/06 00:47:50;;;;;;;14.77;8.38;;;15.00;99.90;;;;;;5074532;28;20385;-81
2022/06/06 00:50:22;;;;;;;14.05;8.75;;;14.90;99.90;;;;;;5073447;28;20076;-80
2022/06/06 00:52:51;;;;;;;15.48;8.65;;;14.90;99.90;;;;;;5075271;28;20576;-83
2022/06/06 00:55:20;;;;;;;15.80;9.35;;;14.90;99.90;;;;;;5071069;28;20048;-80
2022/06/06 00:57:51;;;;;;;13.55;9.23;;;14.80;99.90;;;;;;5074002;28;20131;-82
2022/06/06 01:00:21;;;;;;;12.40;9.38;;;14.80;99.90;;;;;;5073372;28;20051;-80
2022/06/06 01:02:50;;;;;;;12.68;8.95;;;14.80;99.90;;;;;;5073838;28;20074;-81
2022/06/06 01:05:17;;;;;;;17.00;9.23;;;14.80;99.90;;;;;;5057382;28;20044;-81
2022/06/06 01:07:43;;;;;;;19.90;9.80;;;14.80;99.90;;;;;;5074112;28;20041;-82
2022/06/06 01:10:10;;;;;;;23.95;10.00;;;14.70;99.90;;;;;;5072686;28;20056;-81
2022/06/06 01:12:38;;;;;;;29.48;11.40;;;14.70;99.90;;;;;;5074875;28;20134;-80
2022/06/06 01:15:08;;;;;;;13.52;8.10;;;14.70;99.90;;;;;;5073962;28;20040;-81
2022/06/06 01:17:58;;;;;;;10.95;8.10;;;14.70;99.90;;;;;;5064326;28;20388;-80
2022/06/06 01:20:42;;;;;;;10.02;5.88;;;14.70;99.90;;;;;;5074438;28;20103;-80
2022/06/06 01:23:37;;;;;;;11.95;7.03;;;14.60;99.90;;;;;;5072372;28;20045;-82
2022/06/06 01:26:21;;;;;;;8.00;5.75;;;14.60;99.90;;;;;;5067804;28;20054;-79
2022/06/06 01:29:00;;;;;;;8.40;5.68;;;14.50;99.90;;;;;;5072228;28;20062;-79
2022/06/06 01:31:26;;;;;;;12.32;6.22;;;14.50;99.90;;;;;;5073330;28;20044;-80
2022/06/06 01:33:58;;;;;;;8.73;4.75;;;14.40;99.90;;;;;;5072821;28;20044;-80
2022/06/06 01:36:27;;;;;;;10.90;5.53;;;14.40;99.90;;;;;;5072247;28;20127;-80
2022/06/06 01:38:54;;;;;;;11.18;5.72;;;14.40;99.90;;;;;;5073824;28;20044;-80
2022/06/06 01:41:52;;;;;;;9.55;5.53;;;14.30;99.90;;;;;;5073846;28;20450;-81
2022/06/06 01:44:26;;;;;;;13.88;5.50;;;14.30;99.90;;;;;;5072975;28;20053;-80
2022/06/06 01:46:54;;;;;;;8.20;4.68;;;14.30;99.90;;;;;;5072444;28;20078;-80
2022/06/06 01:49:23;;;;;;;10.60;4.55;;;14.20;99.90;;;;;;5073000;28;20059;-81
2022/06/06 01:52:05;;;;;;;9.00;4.68;;;14.20;99.90;;;;;;5071679;28;20044;-80
2022/06/06 01:54:31;;;;;;;35.72;8.93;;;14.20;99.90;;;;;;5073150;28;20480;-82
2022/06/06 01:57:00;;;;;;;6.07;4.00;;;14.20;99.90;;;;;;5065854;28;20057;-81
2022/06/06 01:59:25;;;;;;;12.30;5.35;;;14.20;99.90;;;;;;5054256;28;20041;-81
2022/06/06 02:01:52;;;;;;;9.60;4.40;;;14.20;99.90;;;;;;5068573;28;20432;-80
2022/06/06 02:04:18;;;;;;;10.65;4.40;;;14.10;99.90;;;;;;5072097;28;20040;-81
2022/06/06 02:06:44;;;;;;;9.93;4.95;;;14.10;99.90;;;;;;5059765;28;20527;-82
2022/06/06 02:09:10;;;;;;;11.70;4.10;;;14.10;99.90;;;;;;5070047;28;20064;-81
2022/06/06 02:11:36;;;;;;;8.25;4.00;;;14.10;99.90;;;;;;5071461;28;20052;-81
2022/06/06 02:14:02;;;;;;;11.57;5.07;;;14.10;99.90;;;;;;5072547;28;20054;-81
2022/06/06 02:16:28;;;;;;;7.38;4.40;;;14.10;99.90;;;;;;5071915;28;20097;-81
2022/06/06 02:18:54;;;;;;;24.35;7.00;;;14.10;99.90;;;;;;5054965;28;20044;-81
2022/06/06 02:21:20;;;;;;;14.45;5.50;;;14.10;99.90;;;;;;5072096;28;20128;-81
2022/06/06 02:23:48;;;;;;;10.75;5.22;;;14.00;99.90;;;;;;5072726;28;20066;-81
2022/06/06 02:26:15;;;;;;;15.88;6.70;;;14.00;99.90;;;;;;5072547;28;20446;-81
2022/06/06 02:28:41;;;;;;;14.13;6.55;;;14.00;99.90;;;;;;5072535;28;20175;-80
2022/06/06 02:31:08;;;;;;;17.83;7.78;;;14.00;99.90;;;;;;5071924;28;20044;-81
2022/06/06 02:33:34;;;;;;;14.82;6.75;;;14.00;99.90;;;;;;5072740;28;20446;-80
2022/06/06 02:36:00;;;;;;;10.48;5.15;;;14.00;99.90;;;;;;5072872;28;20036;-80
2022/06/06 02:38:27;;;;;;;12.05;5.80;;;14.00;99.90;;;;;;5072193;28;20098;-81
2022/06/06 02:40:54;;;;;;;14.90;6.30;;;14.00;99.90;;;;;;5063839;28;20080;-80
2022/06/06 02:43:21;;;;;;;10.98;5.85;;;14.00;99.90;;;;;;5052510;28;20056;-81
2022/06/06 02:45:50;;;;;;;9.90;6.60;;;14.00;99.90;;;;;;5061640;28;20495;-80
2022/06/06 02:48:16;;;;;;;15.55;6.10;;;14.00;99.90;;;;;;5072912;28;20055;-79
2022/06/06 02:50:43;;;;;;;11.85;5.45;;;13.90;99.90;;;;;;5071653;28;20044;-80
2022/06/06 02:53:09;;;;;;;9.68;5.68;;;13.90;99.90;;;;;;5070602;28;20119;-79
2022/06/06 02:55:36;;;;;;;12.82;6.35;;;13.90;99.90;;;;;;5072887;28;20095;-80
2022/06/06 02:58:02;;;;;;;15.05;6.10;;;13.90;99.90;;;;;;5076819;28;20044;-80
2022/06/06 03:00:31;;;;;;;9.90;5.60;;;13.90;99.90;;;;;;5074581;28;20040;-80
2022/06/06 03:02:57;;;;;;;17.60;6.70;;;13.90;99.90;;;;;;5076550;28;20079;-80
2022/06/06 03:05:35;;;;;;;12.43;5.80;;;13.90;99.90;;;;;;5075404;28;20517;-80
2022/06/06 03:08:29;;;;;;;69.10;12.95;;;13.90;99.90;;;;;;5075258;28;20048;-80
2022/06/06 03:11:14;;;;;;;11.20;6.03;;;13.90;99.90;;;;;;5058168;28;20053;-79
2022/06/06 03:14:05;;;;;;;6.55;4.90;;;13.90;99.90;;;;;;5056681;28;20056;-79
2022/06/06 03:23:17;;;;;;;9.02;5.18;;;13.90;99.90;;;;;;5076440;28;20097;-80
2022/06/06 03:25:49;;;;;;;14.55;6.22;;;13.90;99.90;;;;;;5076607;28;20510;-79
2022/06/06 03:28:14;;;;;;;8.57;4.68;;;13.80;99.90;;;;;;5076036;28;20484;-80
2022/06/06 03:30:45;;;;;;;8.57;5.25;;;13.80;99.90;;;;;;5076528;28;20047;-80
2022/06/06 03:33:55;;;;;;;10.32;4.60;;;13.80;99.90;;;;;;5075046;28;20052;-80
2022/06/06 03:36:32;;;;;;;7.97;4.35;;;13.90;99.90;;;;;;5074650;28;20110;-80
2022/06/06 03:39:12;;;;;;;6.85;4.32;;;13.90;99.90;;;;;;5075065;28;20543;-80
2022/06/06 03:41:48;;;;;;;7.18;4.28;;;13.80;99.90;;;;;;5075467;28;20053;-80
2022/06/06 03:44:21;;;;;;;7.70;4.30;;;13.90;99.90;;;;;;5074044;28;20047;-80
2022/06/06 03:46:47;;;;;;;19.17;6.78;;;13.90;99.90;;;;;;5076711;28;20106;-80
2022/06/06 03:49:17;;;;;;;8.27;5.45;;;13.90;99.90;;;;;;5073783;28;20048;-80
2022/06/06 03:52:04;;;;;;;8.65;4.82;;;13.80;99.90;;;;;;5074307;28;20476;-80
2022/06/06 03:54:49;;;;;;;30.52;8.05;;;13.90;99.90;;;;;;5056494;28;20079;-80
2022/06/06 03:57:19;;;;;;;6.90;5.13;;;13.90;99.90;;;;;;5058377;28;20079;-79
2022/06/06 03:59:48;;;;;;;8.40;4.30;;;13.90;99.90;;;;;;5075041;28;20080;-80
2022/06/06 04:02:18;;;;;;;9.68;3.28;;;14.00;99.90;;;;;;5071921;28;20499;-79
2022/06/06 04:04:46;;;;;;;4.35;3.20;;;14.00;99.90;;;;;;5055313;28;20041;-79
2022/06/06 04:07:12;;;;;;;5.82;3.40;;;14.00;99.90;;;;;;5057060;28;20079;-79
2022/06/06 04:09:38;;;;;;;3.85;3.25;;;14.00;99.90;;;;;;5073569;28;20070;-79
2022/06/06 04:12:15;;;;;;;13.55;4.70;;;14.00;99.90;;;;;;5073349;28;20052;-79
2022/06/06 04:14:59;;;;;;;4.55;3.17;;;14.00;99.90;;;;;;5055905;28;20044;-79
2022/06/06 04:18:11;;;;;;;15.32;3.60;;;14.10;99.90;;;;;;5058466;28;20044;-79
2022/06/06 04:20:51;;;;;;;8.25;4.05;;;14.10;99.90;;;;;;5070475;28;20056;-79
2022/06/06 04:23:37;;;;;;;10.20;3.92;;;14.10;99.90;;;;;;5073523;28;20510;-80
2022/06/06 04:26:25;;;;;;;6.85;4.07;;;14.10;99.90;;;;;;5074879;28;20507;-81
2022/06/06 04:29:09;;;;;;;14.93;5.60;;;14.00;99.90;;;;;;5057312;28;20055;-80
2022/06/06 04:31:41;;;;;;;7.50;4.15;;;14.00;99.90;;;;;;5073521;28;20055;-80
2022/06/06 04:34:30;;;;;;;12.20;5.15;;;14.00;99.90;;;;;;5076196;28;20089;-82
2022/06/06 04:37:06;;;;;;;7.55;4.40;;;14.00;99.90;;;;;;5074038;28;20436;-80
2022/06/06 04:39:50;;;;;;;7.47;4.15;;;14.00;99.90;;;;;;5072662;28;20048;-80
2022/06/06 04:42:31;;;;;;;7.82;3.28;;;14.00;99.90;;;;;;5074828;28;20522;-79
2022/06/06 04:45:26;;;;;;;7.32;4.40;;;13.90;99.90;;;;;;5074431;28;20044;-80
2022/06/06 04:47:54;;;;;;;10.77;4.95;;;13.90;99.90;;;;;;5054098;28;20041;-82
2022/06/06 04:50:21;;;;;;;14.48;5.82;;;13.90;99.90;;;;;;5055268;28;20052;-81
2022/06/06 04:52:54;;;;;;;9.70;5.63;;;13.80;99.90;;;;;;5072190;28;20880;-79
2022/06/06 04:55:21;;;;;;;7.38;5.38;;;13.80;99.90;;;;;;5074318;28;20106;-78
2022/06/06 04:57:51;;;;;;;13.18;6.03;;;13.90;99.90;;;;;;5074195;28;20090;-80
2022/06/06 05:00:17;;;;;;;20.10;8.77;;;13.80;99.90;;;;;;5056078;28;20056;-80
2022/06/06 05:02:43;;;;;;;11.85;6.20;;;13.80;99.90;;;;;;5073842;28;20040;-82
2022/06/06 05:05:09;;;;;;;22.17;9.60;;;13.80;99.90;;;;;;5073527;28;20142;-80
2022/06/06 05:07:53;;;;;;;35.65;10.63;;;13.80;99.90;;;;;;5074196;28;20047;-79
2022/06/06 05:10:28;;;;;;;23.33;9.88;;;13.80;99.90;;;;;;5057106;28;20460;-79
2022/06/06 05:13:21;;;;;;;28.90;10.80;;;13.70;99.90;;;;;;5070596;28;20096;-80
2022/06/06 05:15:59;;;;;;;35.42;11.77;;;13.70;99.90;;;;;;5073231;28;20136;-80
2022/06/06 05:18:43;;;;;;;32.38;12.48;;;13.70;99.90;;;;;;5072345;28;20044;-80
2022/06/06 05:21:27;;;;;;;28.88;10.35;;;13.70;99.90;;;;;;5072214;28;20047;-79
2022/06/06 05:24:06;;;;;;;44.70;12.90;;;13.70;99.90;;;;;;5079158;28;20048;-80
2022/06/06 05:26:47;;;;;;;18.95;9.68;;;13.70;99.90;;;;;;5087976;28;20048;-81
2022/06/06 05:29:28;;;;;;;35.85;11.02;;;13.70;99.90;;;;;;5072583;28;20045;-79
2022/06/06 05:32:14;;;;;;;32.55;10.40;;;13.60;99.90;;;;;;5072907;28;20522;-80
2022/06/06 05:34:48;;;;;;;20.30;8.98;;;13.60;99.90;;;;;;5072539;28;20040;-81
2022/06/06 05:37:35;;;;;;;16.83;8.45;;;13.60;99.90;;;;;;5072641;28;20522;-79
2022/06/06 05:40:19;;;;;;;23.95;9.82;;;13.60;99.90;;;;;;5073630;28;20072;-80
2022/06/06 05:43:26;;;;;;;24.48;9.82;;;13.60;99.90;;;;;;5046822;28;20063;-79
2022/06/06 05:46:14;;;;;;;18.40;7.60;;;13.60;99.90;;;;;;5053360;28;20468;-79
2022/06/06 05:49:04;;;;;;;21.23;9.02;;;13.50;99.90;;;;;;5069198;28;20044;-81
2022/06/06 05:51:57;;;;;;;26.73;9.13;;;13.50;99.90;;;;;;5073562;28;20056;-79
2022/06/06 05:54:47;;;;;;;23.63;10.05;;;13.50;99.90;;;;;;5072860;28;20043;-81
2022/06/06 05:57:15;;;;;;;17.35;8.80;;;13.50;99.90;;;;;;5071800;28;20052;-79
2022/06/06 05:59:56;;;;;;;20.83;9.60;;;13.50;99.90;;;;;;5073907;28;20039;-80
2022/06/06 06:02:45;;;;;;;27.27;10.68;;;13.50;99.90;;;;;;5072255;28;20045;-80
2022/06/06 06:05:25;;;;;;;20.15;8.45;;;13.40;99.90;;;;;;5071804;28;20066;-80
2022/06/06 06:08:20;;;;;;;22.67;9.55;;;13.50;99.90;;;;;;5060170;28;20044;-79
2022/06/06 06:10:48;;;;;;;16.40;7.75;;;13.50;99.90;;;;;;5071103;28;20119;-81
2022/06/06 06:13:39;;;;;;;16.92;6.20;;;13.50;99.90;;;;;;5073710;28;20510;-80
2022/06/06 06:16:10;;;;;;;11.15;4.50;;;13.50;99.90;;;;;;5071803;28;20477;-85
2022/06/06 06:19:08;;;;;;;6.90;4.57;;;13.60;99.90;;;;;;5091823;28;20044;-88
2022/06/06 06:21:54;;;;;;;5.75;3.65;;;13.60;99.90;;;;;;5074739;28;20024;-88
2022/06/06 06:24:38;;;;;;;10.05;3.25;;;13.60;99.90;;;;;;5072948;28;20045;-86
2022/06/06 06:27:06;;;;;;;7.68;3.67;;;13.70;99.90;;;;;;5073513;28;20047;-89
2022/06/06 06:29:32;;;;;;;7.65;3.85;;;13.60;99.90;;;;;;5074396;28;20123;-88
2022/06/06 06:32:14;;;;;;;11.35;3.75;;;13.50;99.90;;;;;;5072951;28;20045;-90
2022/06/06 06:35:01;;;;;;;15.70;4.40;;;13.50;99.90;;;;;;5072476;28;20040;-88
2022/06/06 06:37:46;;;;;;;6.22;4.07;;;13.50;99.90;;;;;;5072566;28;20098;-86
2022/06/06 06:40:23;;;;;;;5.38;3.70;;;13.50;99.90;;;;;;5072246;28;20056;-89
2022/06/06 06:43:11;;;;;;;9.65;3.55;;;13.50;99.90;;;;;;5073899;28;20040;-86
2022/06/06 06:45:45;;;;;;;11.48;4.43;;;13.50;99.90;;;;;;5075480;28;20052;-87
2022/06/06 06:48:16;;;;;;;11.32;4.10;;;13.50;99.90;;;;;;5073510;28;20041;-83
2022/06/06 06:50:58;;;;;;;6.68;3.83;;;13.50;99.90;;;;;;5072256;28;20127;-88
2022/06/06 06:53:33;;;;;;;11.05;3.95;;;13.60;99.90;;;;;;5072999;28;20090;-89
2022/06/06 06:56:26;;;;;;;12.60;4.78;;;13.50;99.90;;;;;;5073665;28;20048;-83
2022/06/06 06:58:54;;;;;;;8.90;4.18;;;13.50;99.90;;;;;;5073575;28;20051;-85
2022/06/06 07:11:18;;;;;;;10.57;3.97;;;13.60;99.90;;;;;;5026569;28;20045;-86
2022/06/06 07:13:47;;;;;;;11.20;3.97;;;13.60;99.90;;;;;;5052775;28;20587;-83
2022/06/06 07:16:27;;;;;;;8.02;4.10;;;13.70;99.90;;;;;;5061782;28;20377;-83
2022/06/06 07:19:15;;;;;;;6.47;3.25;;;13.70;99.90;;;;;;5060951;28;20476;-87
2022/06/06 07:21:43;;;;;;;8.45;3.30;;;13.80;99.90;;;;;;5063157;28;20106;-85
2022/06/06 07:24:11;;;;;;;10.65;3.55;;;13.90;99.90;;;;;;5074771;28;20051;-89
2022/06/06 07:26:41;;;;;;;9.18;3.28;;;13.90;99.90;;;;;;5083905;28;20480;-85
2022/06/06 07:29:13;;;;;;;5.70;3.50;;;14.70;99.90;;;;;;5070690;28;20391;-86
2022/06/06 07:32:10;;;;;;;10.88;3.78;;;14.00;99.90;;;;;;5056750;28;20365;-84
2022/06/06 07:34:52;;;;;;;6.30;3.05;;;14.00;99.90;;;;;;5050413;28;20065;-84
2022/06/06 07:37:36;;;;;;;7.72;3.15;;;14.00;99.90;;;;;;5070920;28;20377;-86
2022/06/06 07:40:17;;;;;;;5.82;2.97;;;14.10;99.90;;;;;;5034957;28;20567;-88
2022/06/06 07:42:49;;;;;;;3.95;2.58;;;14.20;99.90;;;;;;5071145;28;20056;-83
2022/06/06 07:45:40;;;;;;;4.55;2.83;;;14.30;99.90;;;;;;5075414;28;20048;-88
2022/06/06 07:48:37;;;;;;;6.35;3.47;;;14.40;99.90;;;;;;5085289;28;20087;-85
2022/06/06 07:51:06;;;;;;;8.63;2.78;;;14.40;99.90;;;;;;5072929;28;20087;-88
2022/06/06 07:53:40;;;;;;;9.50;3.78;;;14.50;99.90;;;;;;5086656;28;20094;-89
2022/06/06 07:56:20;;;;;;;8.53;3.30;;;14.50;99.90;;;;;;5075484;28;20088;-90
2022/06/06 07:58:49;;;;;;;7.10;3.28;;;14.50;99.90;;;;;;5057471;28;20045;-85
2022/06/06 08:01:30;;;;;;;6.03;3.40;;;14.60;99.90;;;;;;5057327;28;20443;-84
2022/06/06 08:04:01;;;;;;;10.70;3.40;;;14.50;99.90;;;;;;5055743;28;20041;-85
2022/06/06 08:06:36;;;;;;;8.52;3.88;;;14.50;99.90;;;;;;5064911;28;20047;-85
2022/06/06 08:09:38;;;;;;;6.82;4.20;;;14.50;99.90;;;;;;5075747;28;20476;-86
2022/06/06 08:12:19;;;;;;;7.82;4.38;;;14.40;99.90;;;;;;5056798;28;20052;-87
2022/06/06 08:15:07;;;;;;;10.77;4.55;;;14.50;99.90;;;;;;5065982;28;20049;-83
2022/06/06 08:18:06;;;;;;;9.07;4.90;;;14.50;99.90;;;;;;5057204;28;20048;-88
2022/06/06 08:20:43;;;;;;;8.75;5.32;;;14.70;99.90;;;;;;5054618;28;20055;-86
2022/06/06 08:23:10;;;;;;;11.27;5.57;;;14.80;99.90;;;;;;5070138;28;20045;-86
2022/06/06 08:25:37;;;;;;;13.27;5.18;;;15.00;99.90;;;;;;5073911;28;20136;-85
2022/06/06 08:28:05;;;;;;;7.70;5.22;;;15.10;99.90;;;;;;5083595;28;20115;-86
2022/06/06 08:30:34;;;;;;;11.90;5.80;;;15.20;99.90;;;;;;5076285;28;20053;-86
2022/06/06 08:33:00;;;;;;;14.13;5.18;;;15.30;99.90;;;;;;5070203;28;20052;-85
2022/06/06 08:35:54;;;;;;;10.20;4.30;;;15.40;99.90;;;;;;5058906;28;20048;-85
2022/06/06 08:39:27;;;;;;;9.30;4.10;;;15.50;99.90;;;;;;5065526;28;20056;-87
2022/06/06 08:42:23;;;;;;;5.38;3.33;;;15.60;99.90;;;;;;5019931;28;20501;-91
2022/06/06 08:44:59;;;;;;;9.85;3.72;;;15.60;99.90;;;;;;5074467;28;20094;-86
2022/06/06 08:47:56;;;;;;;5.75;3.25;;;15.60;99.90;;;;;;5083993;28;20115;-86
2022/06/06 08:50:45;;;;;;;11.38;3.85;;;15.50;99.90;;;;;;5073255;28;20080;-84
2022/06/06 08:53:14;;;;;;;7.15;2.70;;;15.40;99.90;;;;;;5073291;28;20048;-88
2022/06/06 08:56:08;;;;;;;5.65;3.15;;;15.30;99.90;;;;;;5074097;28;20135;-86
2022/06/06 08:59:12;;;;;;;6.43;3.28;;;15.30;99.90;;;;;;5059579;28;20412;-86
2022/06/06 09:02:15;;;;;;;7.60;3.30;;;15.30;99.90;;;;;;5055586;28;20488;-88
2022/06/06 09:04:59;;;;;;;5.30;3.33;;;15.20;99.90;;;;;;5083042;28;20038;-86
2022/06/06 09:08:07;;;;;;;8.52;3.80;;;15.40;99.90;;;;;;5081374;28;20043;-84
2022/06/06 09:11:20;;;;;;;8.70;3.38;;;15.50;99.90;;;;;;5065559;28;20135;-86
2022/06/06 09:14:14;;;;;;;6.88;2.90;;;15.60;99.90;;;;;;5036103;28;20052;-90
2022/06/06 09:16:58;;;;;;;12.05;3.05;;;15.60;99.90;;;;;;5055068;28;20053;-87
2022/06/06 09:19:52;;;;;;;4.63;2.87;;;15.60;99.90;;;;;;5049458;28;20533;-86
2022/06/06 09:22:39;;;;;;;7.63;2.75;;;15.60;99.90;;;;;;5084495;28;20381;-84
2022/06/06 09:25:46;;;;;;;5.82;2.50;;;15.70;99.90;;;;;;5093584;28;20048;-85
2022/06/06 09:28:26;;;;;;;;;;;15.70;99.90;;;;;;5055937;28;20049;-85
2022/06/06 09:30:55;;;;;;;9.63;2.92;;;15.80;99.90;;;;;;5068332;28;20007;-83
2022/06/06 09:33:45;;;;;;;6.00;2.60;;;15.80;99.90;;;;;;5056562;28;20130;-85
2022/06/06 09:36:29;;;;;;;10.98;2.83;;;15.90;99.90;;;;;;5054015;28;20055;-85
2022/06/06 09:39:07;;;;;;;11.67;3.07;;;16.00;99.90;;;;;;5052947;28;20136;-85
2022/06/06 09:42:15;;;;;;;6.47;2.53;;;16.10;99.90;;;;;;5072266;28;20450;-83
2022/06/06 09:45:06;;;;;;;4.63;1.90;;;16.20;99.90;;;;;;5072461;28;20048;-83
2022/06/06 09:47:50;;;;;;;8.13;2.08;;;16.20;99.90;;;;;;5053224;28;20041;-85
2022/06/06 09:50:30;;;;;;;6.28;2.20;;;16.20;99.90;;;;;;5060125;28;20046;-88
2022/06/06 09:53:18;;;;;;;12.85;2.10;;;16.30;99.90;;;;;;5072854;28;20040;-86
2022/06/06 09:59:54;;;;;;;11.18;2.38;;;16.40;99.90;;;;;;5052728;28;20059;-83
2022/06/06 10:02:43;;;;;;;11.32;3.60;;;16.60;99.90;;;;;;5049857;28;20500;-83
2022/06/06 10:05:32;;;;;;;10.90;1.98;;;16.60;99.90;;;;;;5051470;28;20131;-85
2022/06/06 10:08:16;;;;;;;8.68;1.95;;;16.70;99.90;;;;;;5070578;28;20511;-81
2022/06/06 10:11:01;;;;;;;7.15;1.92;;;16.80;99.90;;;;;;5051427;28;20056;-85
2022/06/06 10:13:41;;;;;;;7.90;1.88;;;17.00;99.90;;;;;;5052827;28;20060;-85
2022/06/06 10:16:19;;;;;;;5.47;1.50;;;17.00;99.90;;;;;;5051596;28;20045;-85
2022/06/06 10:19:10;;;;;;;12.48;1.55;;;17.00;99.90;;;;;;5053818;28;20132;-84
2022/06/06 10:22:00;;;;;;;5.20;1.10;;;16.90;99.90;;;;;;5053611;28;20055;-84
2022/06/06 10:24:44;;;;;;;7.75;1.38;;;16.80;99.90;;;;;;5068403;28;20396;-85
2022/06/06 10:27:51;;;;;;;10.77;1.40;;;16.70;99.90;;;;;;5052172;28;20063;-84
2022/06/06 10:30:23;;;;;;;8.10;1.60;;;16.80;99.90;;;;;;5052477;28;20052;-84
2022/06/06 10:33:02;;;;;;;8.98;1.40;;;16.80;99.90;;;;;;5072716;28;20036;-86
2022/06/06 10:35:46;;;;;;;6.82;1.63;;;16.90;99.90;;;;;;5055282;28;20037;-85
2022/06/06 10:38:33;;;;;;;12.25;2.00;;;16.90;99.90;;;;;;5067328;28;20044;-84
2022/06/06 10:41:27;;;;;;;5.95;1.17;;;16.90;99.90;;;;;;5072421;28;20093;-84
2022/06/06 10:44:01;;;;;;;4.32;1.38;;;17.00;99.90;;;;;;5073503;28;20119;-87
2022/06/06 10:46:46;;;;;;;8.52;1.42;;;17.20;99.90;;;;;;5071671;28;20052;-87
2022/06/06 10:49:17;;;;;;;6.82;1.50;;;17.30;99.90;;;;;;5061745;28;20049;-84
2022/06/06 10:52:18;;;;;;;5.82;1.13;;;17.40;99.90;;;;;;5051073;28;20037;-84
2022/06/06 10:55:22;;;;;;;6.43;1.83;;;17.50;99.90;;;;;;5075380;28;20036;-85
2022/06/06 10:58:17;;;;;;;7.03;1.25;;;17.50;99.90;;;;;;5029859;28;20045;-87
2022/06/06 11:01:20;;;;;;;6.68;1.40;;;17.50;99.90;;;;;;5053382;28;20037;-82
2022/06/06 11:04:24;;;;;;;6.75;1.48;;;17.50;99.90;;;;;;5064502;28;20441;-83
2022/06/06 11:07:14;;;;;;;4.97;0.80;;;17.50;99.90;;;;;;5071261;28;20048;-87
2022/06/06 11:10:15;;;;;;;6.65;1.20;;;17.40;99.90;;;;;;5054278;28;20485;-85
2022/06/06 11:13:19;;;;;;;9.32;1.42;;;17.20;99.90;;;;;;5052609;28;20404;-85
2022/06/06 11:16:14;;;;;;;7.40;1.38;;;17.10;99.90;;;;;;5068629;28;20408;-85
2022/06/06 11:18:59;;;;;;;;;;;17.00;99.90;;;;;;5055297;28;20389;-85
2022/06/06 11:21:25;;;;;;;6.30;1.65;;;17.00;99.90;;;;;;5054936;28;20007;-89
2022/06/06 11:24:00;;;;;;;5.88;1.30;;;17.20;99.90;;;;;;5067142;28;20547;-85
2022/06/06 11:26:44;;;;;;;6.00;1.13;;;17.30;99.90;;;;;;5076000;28;20053;-85
2022/06/06 11:29:29;;;;;;;6.97;1.55;;;17.40;99.90;;;;;;5062775;28;20045;-87
2022/06/06 11:32:38;;;;;;;10.88;2.08;;;17.50;99.90;;;;;;5055573;28;20048;-86
2022/06/06 11:35:34;;;;;;;5.97;1.15;;;17.50;99.90;;;;;;5076349;28;20044;-84
2022/06/06 11:38:41;;;;;;;2.47;1.02;;;17.50;99.90;;;;;;5062802;28;20056;-85
2022/06/06 11:41:26;;;;;;;8.85;1.60;;;17.40;99.90;;;;;;5061758;28;20476;-88
2022/06/06 11:44:05;;;;;;;5.32;1.45;;;17.40;99.90;;;;;;5063540;28;20040;-88
2022/06/06 11:46:47;;;;;;;4.90;1.30;;;17.40;99.90;;;;;;5069191;28;20095;-88
2022/06/06 11:49:16;;;;;;;3.58;1.13;;;17.30;99.90;;;;;;5063273;28;20037;-87
2022/06/06 11:52:10;;;;;;;6.97;1.30;;;17.20;99.90;;;;;;5055150;28;20097;-85
2022/06/06 11:55:12;;;;;;;10.50;1.90;;;17.10;99.90;;;;;;5070285;28;20040;-84
2022/06/06 11:57:56;;;;;;;8.80;1.60;;;17.20;99.90;;;;;;5017981;28;20049;-86
2022/06/06 12:00:40;;;;;;;5.85;1.15;;;17.40;99.90;;;;;;5055131;28;20110;-84
2022/06/06 12:03:09;;;;;;;11.70;1.40;;;17.40;99.90;;;;;;5072766;28;20387;-84
2022/06/06 12:06:13;;;;;;;7.05;1.27;;;17.50;99.90;;;;;;5081734;28;20307;-84
2022/06/06 12:08:51;;;;;;;7.20;1.25;;;17.60;99.90;;;;;;5073834;28;20056;-84
2022/06/06 12:11:35;;;;;;;6.22;1.30;;;17.50;99.90;;;;;;5074766;28;20445;-85
2022/06/06 12:14:39;;;;;;;5.32;1.25;;;17.50;99.90;;;;;;5072456;28;20055;-84
2022/06/06 12:17:22;;;;;;;6.40;1.30;;;17.40;99.90;;;;;;5070113;28;20048;-82
2022/06/06 12:20:09;;;;;;;7.68;1.13;;;17.30;99.90;;;;;;5071743;28;20124;-83
2022/06/06 12:23:15;;;;;;;4.53;1.20;;;17.30;99.90;;;;;;5074553;28;20128;-86
2022/06/06 12:25:47;;;;;;;6.22;1.38;;;17.20;99.90;;;;;;5073341;28;20407;-83
2022/06/06 12:28:37;;;;;;;8.57;1.70;;;17.10;99.90;;;;;;5074673;28;20119;-84
2022/06/06 12:31:09;;;;;;;4.40;1.35;;;17.00;99.90;;;;;;5072753;28;20044;-84
2022/06/06 12:33:54;;;;;;;4.85;1.50;;;16.90;99.90;;;;;;5074663;28;20389;-85
2022/06/06 12:36:39;;;;;;;3.20;1.30;;;16.90;99.90;;;;;;5075614;28;20049;-86
2022/06/06 12:39:22;;;;;;;9.82;2.00;;;16.80;99.90;;;;;;5075524;28;20478;-83
2022/06/06 12:42:24;;;;;;;7.00;1.40;;;16.70;99.90;;;;;;5074797;28;20060;-85
2022/06/06 12:44:49;;;;;;;7.03;1.60;;;16.60;99.90;;;;;;5071709;28;20068;-86
2022/06/06 12:47:24;;;;;;;8.32;1.98;;;16.40;99.90;;;;;;5075728;28;20036;-84
2022/06/06 12:50:14;;;;;;;7.13;2.50;;;16.30;99.90;;;;;;5074539;28;20396;-86
2022/06/06 12:53:11;;;;;;;6.15;2.08;;;16.10;99.90;;;;;;5073289;28;20066;-83
2022/06/06 12:56:17;;;;;;;6.13;1.90;;;16.00;99.90;;;;;;5074426;28;20053;-85
2022/06/06 12:58:47;;;;;;;3.88;1.98;;;15.90;99.90;;;;;;5073294;28;20048;-86
2022/06/06 13:01:40;;;;;;;5.10;2.05;;;16.00;99.90;;;;;;5075396;28;20044;-86
2022/06/06 13:04:32;;;;;;;4.38;1.92;;;16.10;99.90;;;;;;5074343;28;20072;-88
2022/06/06 13:07:11;;;;;;;8.88;2.50;;;16.20;99.90;;;;;;5073418;28;20048;-87
2022/06/06 13:10:27;;;;;;;4.28;2.03;;;16.20;99.90;;;;;;5073871;28;20052;-85
2022/06/06 13:13:17;;;;;;;8.90;2.20;;;16.10;99.90;;;;;;5047829;28;20056;-85
2022/06/06 13:16:20;;;;;;;6.55;2.30;;;16.10;99.90;;;;;;5073847;28;20044;-85
2022/06/06 13:19:19;;;;;;;5.63;1.77;;;16.00;99.90;;;;;;5073925;28;20055;-86
2022/06/06 13:21:53;;;;;;;8.85;2.60;;;15.90;99.90;;;;;;5073661;28;20488;-85
2022/06/06 13:24:50;;;;;;;6.68;2.13;;;15.80;99.90;;;;;;5073525;28;20127;-86
2022/06/06 13:27:18;;;;;;;6.07;2.17;;;15.70;99.90;;;;;;5074171;28;20376;-84
2022/06/06 13:29:46;;;;;;;7.15;2.25;;;15.70;99.90;;;;;;5073656;28;20400;-86
2022/06/06 13:32:40;;;;;;;4.93;2.63;;;15.70;99.90;;;;;;5073724;28;20087;-83
2022/06/06 13:35:21;;;;;;;4.35;2.10;;;15.60;99.90;;;;;;5072446;28;20510;-84
2022/06/06 13:38:14;;;;;;;4.03;2.10;;;15.50;99.90;;;;;;5073444;28;20090;-83
2022/06/06 13:40:58;;;;;;;6.38;2.60;;;15.40;99.90;;;;;;5061615;28;20064;-84
2022/06/06 13:43:44;;;;;;;5.47;2.27;;;15.30;99.90;;;;;;5073090;28;20048;-84
2022/06/06 13:46:37;;;;;;;4.20;2.15;;;15.20;99.90;;;;;;5073428;28;20044;-84
2022/06/06 13:49:27;;;;;;;5.45;2.50;;;15.20;99.90;;;;;;5073421;28;20048;-84
2022/06/06 13:52:05;;;;;;;8.32;3.13;;;15.10;99.90;;;;;;5072978;28;20052;-83
2022/06/06 13:54:37;;;;;;;4.35;2.63;;;15.10;99.90;;;;;;5073532;28;20113;-82
2022/06/06 13:57:22;;;;;;;7.75;3.10;;;15.10;99.90;;;;;;5074223;28;20385;-83
2022/06/06 14:00:15;;;;;;;5.75;2.35;;;15.00;99.90;;;;;;5074302;28;20036;-84
2022/06/06 14:03:15;;;;;;;7.00;2.88;;;15.00;99.90;;;;;;5073451;28;20403;-84
2022/06/06 14:05:57;;;;;;;7.93;2.70;;;15.00;99.90;;;;;;5072881;28;20048;-84
2022/06/06 14:08:24;;;;;;;4.60;2.83;;;15.00;99.90;;;;;;5073410;28;20373;-84
2022/06/06 14:10:53;;;;;;;14.00;3.85;;;14.90;99.90;;;;;;5072502;28;20064;-85
2022/06/06 14:13:47;;;;;;;8.57;3.42;;;14.90;99.90;;;;;;5072711;28;20408;-82